createdAt,value
2019-05-16T00:02:01.042Z,4.62
2019-05-16T00:04:24.820Z,5.05
2019-05-16T00:06:52.959Z,4.20
2019-05-16T00:09:21.336Z,5.05
2019-05-16T00:11:49.465Z,5.35
2019-05-16T00:14:18.863Z,4.10
2019-05-16T00:16:48.389Z,4.65
2019-05-16T00:19:14.858Z,4.78
2019-05-16T00:21:42.709Z,5.03
2019-05-16T00:24:11.423Z,4.15
2019-05-16T00:26:39.605Z,5.20
2019-05-16T00:29:08.015Z,4.28
2019-05-16T00:31:38.051Z,5.10
2019-05-16T00:34:04.233Z,5.05
2019-05-16T00:36:32.479Z,4.55
2019-05-16T00:39:00.937Z,4.28
2019-05-16T00:41:29.200Z,4.47
2019-05-16T00:43:57.723Z,4.65
2019-05-16T00:46:25.013Z,4.85
2019-05-16T00:48:53.137Z,4.20
2019-05-16T00:51:21.221Z,4.25
2019-05-16T00:53:49.358Z,4.80
2019-05-16T00:56:18.629Z,4.57
2019-05-16T00:58:45.637Z,5.00
2019-05-16T01:01:13.821Z,5.50
2019-05-16T01:03:41.896Z,4.28
2019-05-16T01:06:18.735Z,4.60
2019-05-16T01:08:38.667Z,4.80
2019-05-16T01:11:41.932Z,4.85
2019-05-16T01:14:10.023Z,4.87
2019-05-16T01:16:38.361Z,4.40
2019-05-16T01:19:08.546Z,4.57
2019-05-16T01:21:35.668Z,4.78
2019-05-16T01:24:03.991Z,4.25
2019-05-16T01:26:32.761Z,4.95
2019-05-16T01:29:01.487Z,4.60
2019-05-16T01:31:30.408Z,4.43
2019-05-16T01:33:58.785Z,4.65
2019-05-16T01:36:36.745Z,5.00
2019-05-16T01:38:58.491Z,4.45
2019-05-16T01:41:25.563Z,4.45
2019-05-16T01:43:54.678Z,5.25
2019-05-16T01:46:23.556Z,5.75
2019-05-16T01:48:51.749Z,4.45
2019-05-16T01:51:19.970Z,5.25
2019-05-16T01:53:48.812Z,4.47
2019-05-16T01:56:17.942Z,5.12
2019-05-16T01:58:44.347Z,5.50
2019-05-16T02:01:15.752Z,5.75
2019-05-16T02:03:40.568Z,4.15
2019-05-16T02:06:08.981Z,4.85
2019-05-16T02:08:38.056Z,4.80
2019-05-16T02:11:05.063Z,4.75
2019-05-16T02:13:33.664Z,4.82
2019-05-16T02:16:01.776Z,4.65
2019-05-16T02:18:30.438Z,4.50
2019-05-16T02:21:01.285Z,4.87
2019-05-16T02:23:27.760Z,4.18
2019-05-16T02:25:57.818Z,4.15
2019-05-16T02:28:30.348Z,4.50
2019-05-16T02:30:52.587Z,4.35
2019-05-16T02:33:21.546Z,4.60
2019-05-16T02:35:54.772Z,4.65
2019-05-16T02:38:16.325Z,4.00
2019-05-16T02:40:44.483Z,4.68
2019-05-16T02:43:12.701Z,4.35
2019-05-16T02:45:41.478Z,4.60
2019-05-16T02:48:10.991Z,4.50
2019-05-16T02:50:36.382Z,3.85
2019-05-16T02:53:04.647Z,4.50
2019-05-16T02:55:32.414Z,4.15
2019-05-16T02:58:01.132Z,3.60
2019-05-16T03:00:35.425Z,4.05
2019-05-16T03:03:04.156Z,4.97
2019-05-16T03:05:32.056Z,3.90
2019-05-16T03:08:01.325Z,4.00
2019-05-16T03:10:31.017Z,4.40
2019-05-16T03:12:56.581Z,4.40
2019-05-16T03:15:25.174Z,3.95
2019-05-16T03:17:53.240Z,4.07
2019-05-16T03:20:21.788Z,3.90
2019-05-16T03:22:52.034Z,3.75
2019-05-16T03:25:17.952Z,4.40
2019-05-16T03:27:46.042Z,4.03
2019-05-16T03:30:16.544Z,4.20
2019-05-16T03:32:45.285Z,4.10
2019-05-16T03:35:15.441Z,4.62
2019-05-16T03:37:54.404Z,4.32
2019-05-16T03:40:06.847Z,4.10
2019-05-16T03:42:34.781Z,4.45
2019-05-16T03:45:02.889Z,4.32
2019-05-16T03:47:31.459Z,4.12
2019-05-16T03:50:00.574Z,4.30
2019-05-16T03:52:27.503Z,4.15
2019-05-16T03:54:55.746Z,4.80
2019-05-16T03:57:23.561Z,4.35
2019-05-16T03:59:51.907Z,4.65
2019-05-16T04:02:21.599Z,4.20
2019-05-16T04:04:50.879Z,5.00
2019-05-16T04:07:16.019Z,4.10
2019-05-16T04:09:44.673Z,4.30
2019-05-16T04:12:13.162Z,4.87
2019-05-16T04:14:41.299Z,4.53
2019-05-16T04:17:10.884Z,4.78
2019-05-16T04:19:37.540Z,4.18
2019-05-16T04:22:06.674Z,4.47
2019-05-16T04:24:34.560Z,4.35
2019-05-16T04:27:02.926Z,4.68
2019-05-16T04:29:31.796Z,4.00
2019-05-16T04:32:01.408Z,5.10
2019-05-16T04:34:27.623Z,4.20
2019-05-16T04:36:56.373Z,5.35
2019-05-16T04:39:25.784Z,4.62
2019-05-16T04:41:55.825Z,5.45
2019-05-16T04:44:24.394Z,5.18
2019-05-16T04:46:52.223Z,4.95
2019-05-16T04:49:21.185Z,4.93
2019-05-16T04:51:51.362Z,5.05
2019-05-16T04:54:16.435Z,4.62
2019-05-16T04:56:44.562Z,4.75
2019-05-16T04:59:16.750Z,3.83
2019-05-16T05:01:41.479Z,4.12
2019-05-16T05:04:14.817Z,4.20
2019-05-16T05:06:40.393Z,4.25
2019-05-16T05:09:06.563Z,3.30
2019-05-16T05:11:34.795Z,4.00
2019-05-16T05:14:02.863Z,4.12
2019-05-16T05:16:30.795Z,3.37
2019-05-16T05:19:00.318Z,3.40
2019-05-16T05:21:27.250Z,3.30
2019-05-16T05:23:55.230Z,3.65
2019-05-16T05:26:23.442Z,3.05
2019-05-16T05:28:51.369Z,3.45
2019-05-16T05:31:25.057Z,4.10
2019-05-16T05:33:50.536Z,3.53
2019-05-16T05:36:16.088Z,2.80
2019-05-16T05:38:44.187Z,3.30
2019-05-16T05:41:12.056Z,3.75
2019-05-16T05:43:40.213Z,4.12
2019-05-16T05:46:10.927Z,3.80
2019-05-16T05:48:36.989Z,3.92
2019-05-16T05:51:05.660Z,3.67
2019-05-16T05:53:33.742Z,3.08
2019-05-16T05:56:01.827Z,3.53
2019-05-16T05:58:30.767Z,3.30
2019-05-16T06:01:00.467Z,2.90
2019-05-16T06:03:26.444Z,3.33
2019-05-16T06:05:54.618Z,3.00
2019-05-16T06:08:22.781Z,2.85
2019-05-16T06:10:50.794Z,3.42
2019-05-16T06:13:20.577Z,3.20
2019-05-16T06:15:47.089Z,2.97
2019-05-16T06:18:15.257Z,2.47
2019-05-16T06:20:43.937Z,2.62
2019-05-16T06:23:11.800Z,2.58
2019-05-16T06:25:40.589Z,2.50
2019-05-16T06:28:10.542Z,2.67
2019-05-16T06:30:36.652Z,2.28
2019-05-16T06:33:04.755Z,1.80
2019-05-16T06:35:33.712Z,2.62
2019-05-16T06:38:01.914Z,2.85
2019-05-16T06:40:30.062Z,2.15
2019-05-16T06:43:00.257Z,2.78
2019-05-16T06:45:26.067Z,1.80
2019-05-16T06:47:54.203Z,1.85
2019-05-16T06:50:22.357Z,2.00
2019-05-16T06:52:50.519Z,2.03
2019-05-16T06:55:20.474Z,2.12
2019-05-16T06:57:46.670Z,2.00
2019-05-16T07:00:14.638Z,2.30
2019-05-16T07:02:42.748Z,1.90
2019-05-16T07:05:10.999Z,1.73
2019-05-16T07:07:40.409Z,2.30
2019-05-16T07:10:09.602Z,1.83
2019-05-16T07:12:35.700Z,2.05
2019-05-16T07:15:03.873Z,2.15
2019-05-16T07:17:32.360Z,1.60
2019-05-16T07:20:00.914Z,1.75
2019-05-16T07:22:31.226Z,1.40
2019-05-16T07:24:57.144Z,1.80
2019-05-16T07:27:25.287Z,1.37
2019-05-16T07:29:53.132Z,1.85
2019-05-16T07:32:21.304Z,1.70
2019-05-16T07:34:49.964Z,1.90
2019-05-16T07:37:19.892Z,1.83
2019-05-16T07:39:46.427Z,2.17
2019-05-16T07:42:14.542Z,1.92
2019-05-16T07:44:42.480Z,2.25
2019-05-16T07:47:11.302Z,2.28
2019-05-16T07:49:40.684Z,2.03
2019-05-16T07:52:07.080Z,2.50
2019-05-16T07:54:34.861Z,2.50
2019-05-16T07:57:18.611Z,2.12
2019-05-16T07:59:30.808Z,1.92
2019-05-16T08:02:00.524Z,2.25
2019-05-16T08:04:27.042Z,1.95
2019-05-16T08:06:55.084Z,2.70
2019-05-16T08:09:22.984Z,2.70
2019-05-16T08:11:51.056Z,2.25
2019-05-16T08:14:21.250Z,2.03
2019-05-16T08:16:49.990Z,1.58
2019-05-16T08:19:15.487Z,1.80
2019-05-16T08:21:43.530Z,1.92
2019-05-16T08:24:15.109Z,1.83
2019-05-16T08:26:42.927Z,1.90
2019-05-16T08:29:07.845Z,1.70
2019-05-16T08:31:35.926Z,1.65
2019-05-16T08:34:04.820Z,1.80
2019-05-16T08:36:32.975Z,3.30
2019-05-16T08:39:01.568Z,1.70
2019-05-16T08:41:31.632Z,2.08
2019-05-16T08:44:01.052Z,1.80
2019-05-16T08:46:25.741Z,1.60
2019-05-16T08:48:54.389Z,1.90
2019-05-16T08:51:22.231Z,1.60
2019-05-16T08:53:50.595Z,1.90
2019-05-16T08:56:18.105Z,2.17
2019-05-16T08:58:46.154Z,1.98
2019-05-16T09:01:14.981Z,1.60
2019-05-16T09:03:42.391Z,1.80
2019-05-16T09:06:11.810Z,2.20
2019-05-16T09:08:38.238Z,2.05
2019-05-16T09:11:27.178Z,1.80
2019-05-16T09:13:36.825Z,1.80
2019-05-16T09:16:02.566Z,1.98
2019-05-16T09:18:39.988Z,2.30
2019-05-16T09:20:58.214Z,1.70
2019-05-16T09:23:26.788Z,1.90
2019-05-16T09:25:54.144Z,1.87
2019-05-16T09:28:22.396Z,1.80
2019-05-16T09:30:50.575Z,2.30
2019-05-16T09:33:18.645Z,1.90
2019-05-16T09:35:48.223Z,1.85
2019-05-16T09:38:20.260Z,1.70
2019-05-16T09:40:43.701Z,1.67
2019-05-16T09:43:11.832Z,1.52
2019-05-16T09:45:39.954Z,1.90
2019-05-16T09:48:08.614Z,1.98
2019-05-16T09:50:37.907Z,2.10
2019-05-16T09:53:07.103Z,2.08
2019-05-16T09:55:33.236Z,1.90
2019-05-16T09:58:01.080Z,2.10
2019-05-16T10:00:29.320Z,1.87
2019-05-16T10:02:58.021Z,2.35
2019-05-16T10:05:26.613Z,1.77
2019-05-16T10:07:53.490Z,2.20
2019-05-16T10:10:21.527Z,2.12
2019-05-16T10:12:49.414Z,1.95
2019-05-16T10:15:17.950Z,2.12
2019-05-16T10:17:47.600Z,2.45
2019-05-16T10:20:16.762Z,1.73
2019-05-16T10:22:42.388Z,1.95
2019-05-16T10:25:09.897Z,2.05
2019-05-16T10:27:37.977Z,2.10
2019-05-16T10:30:08.490Z,1.90
2019-05-16T10:32:36.980Z,2.20
2019-05-16T10:35:02.266Z,2.28
2019-05-16T10:37:31.038Z,1.90
2019-05-16T10:40:00.023Z,2.10
2019-05-16T10:42:29.114Z,2.30
2019-05-16T10:44:57.659Z,2.78
2019-05-16T10:47:24.062Z,1.77
2019-05-16T10:49:51.911Z,1.92
2019-05-16T10:52:20.509Z,2.22
2019-05-16T10:54:58.069Z,2.00
2019-05-16T10:57:17.260Z,2.10
2019-05-16T11:00:04.238Z,2.33
2019-05-16T11:02:16.508Z,1.98
2019-05-16T11:04:55.332Z,2.37
2019-05-16T11:07:10.410Z,2.25
2019-05-16T11:09:39.419Z,2.47
2019-05-16T11:12:06.594Z,2.30
2019-05-16T11:14:36.887Z,2.50
2019-05-16T11:17:02.554Z,2.12
2019-05-16T11:19:30.654Z,2.40
2019-05-16T11:21:58.847Z,2.50
2019-05-16T11:24:29.232Z,2.35
2019-05-16T11:26:56.962Z,2.37
2019-05-16T11:29:23.834Z,2.33
2019-05-16T11:31:52.222Z,2.15
2019-05-16T11:34:20.302Z,2.08
2019-05-16T11:36:48.459Z,2.20
2019-05-16T11:39:17.417Z,2.72
2019-05-16T11:41:44.602Z,1.87
2019-05-16T11:44:13.468Z,2.47
2019-05-16T11:46:41.551Z,2.50
2019-05-16T11:49:09.664Z,2.58
2019-05-16T11:51:38.435Z,2.17
2019-05-16T11:54:07.040Z,2.20
2019-05-16T11:56:36.902Z,2.28
2019-05-16T11:59:03.061Z,2.67
2019-05-16T12:01:30.876Z,2.50
2019-05-16T12:03:59.026Z,2.42
2019-05-16T12:06:27.606Z,2.53
2019-05-16T12:08:55.790Z,2.22
2019-05-16T12:11:23.934Z,2.35
2019-05-16T12:13:52.389Z,2.47
2019-05-16T12:16:20.731Z,2.60
2019-05-16T12:18:48.525Z,2.55
2019-05-16T12:21:17.237Z,2.70
2019-05-16T12:23:47.117Z,2.70
2019-05-16T12:26:12.603Z,1.65
2019-05-16T12:28:41.016Z,2.42
2019-05-16T12:31:09.124Z,2.70
2019-05-16T12:33:37.789Z,2.62
2019-05-16T12:36:07.329Z,2.70
2019-05-16T12:38:34.027Z,2.87
2019-05-16T12:41:02.206Z,3.20
2019-05-16T12:43:44.576Z,2.50
2019-05-16T12:45:58.964Z,3.17
2019-05-16T12:48:27.119Z,2.83
2019-05-16T12:50:58.572Z,3.28
2019-05-16T12:53:31.272Z,2.83
2019-05-16T12:55:51.135Z,2.67
2019-05-16T12:58:25.092Z,2.47
2019-05-16T13:00:54.145Z,2.65
2019-05-16T13:03:15.885Z,2.70
2019-05-16T13:05:44.251Z,2.20
2019-05-16T13:08:12.310Z,2.67
2019-05-16T13:10:40.197Z,2.65
2019-05-16T13:13:08.534Z,3.12
2019-05-16T13:15:37.916Z,2.78
2019-05-16T13:18:07.692Z,2.70
2019-05-16T13:20:33.280Z,3.03
2019-05-16T13:23:01.134Z,2.83
2019-05-16T13:25:29.354Z,2.87
2019-05-16T13:27:57.928Z,3.75
2019-05-16T13:30:26.865Z,2.78
2019-05-16T13:32:56.182Z,3.15
2019-05-16T13:35:22.026Z,2.80
2019-05-16T13:37:49.790Z,2.83
2019-05-16T13:40:17.868Z,2.60
2019-05-16T13:42:47.886Z,4.00
2019-05-16T13:45:13.522Z,3.60
2019-05-16T13:47:42.242Z,2.87
2019-05-16T13:50:12.049Z,3.05
2019-05-16T13:52:38.686Z,3.30
2019-05-16T13:55:07.108Z,3.47
2019-05-16T13:57:37.386Z,3.05
2019-05-16T14:00:03.669Z,3.30
2019-05-16T14:02:31.754Z,2.72
2019-05-16T14:05:00.027Z,2.28
2019-05-16T14:07:28.169Z,2.40
2019-05-16T14:09:57.890Z,3.15
2019-05-16T14:12:26.763Z,2.78
2019-05-16T14:14:53.643Z,2.80
2019-05-16T14:17:22.208Z,2.40
2019-05-16T14:19:50.509Z,2.40
2019-05-16T14:22:18.557Z,2.10
2019-05-16T14:24:48.111Z,2.67
2019-05-16T14:27:14.259Z,2.28
2019-05-16T14:29:42.473Z,2.67
2019-05-16T14:32:11.104Z,2.90
2019-05-16T14:34:39.255Z,2.42
2019-05-16T14:37:07.398Z,2.87
2019-05-16T14:39:38.435Z,2.47
2019-05-16T14:42:02.941Z,2.65
2019-05-16T14:44:31.004Z,2.95
2019-05-16T14:46:59.208Z,2.92
2019-05-16T14:49:28.782Z,3.20
2019-05-16T14:51:58.016Z,3.22
2019-05-16T14:54:24.044Z,2.90
2019-05-16T14:56:52.495Z,2.53
2019-05-16T14:59:20.483Z,3.03
2019-05-16T15:01:48.633Z,2.65
2019-05-16T15:04:16.491Z,2.62
2019-05-16T15:06:46.802Z,3.40
2019-05-16T15:09:12.743Z,3.50
2019-05-16T15:11:41.128Z,2.95
2019-05-16T15:14:09.289Z,2.83
2019-05-16T15:16:37.323Z,3.03
2019-05-16T15:19:07.939Z,2.92
2019-05-16T15:21:33.495Z,3.30
2019-05-16T15:24:01.268Z,3.45
2019-05-16T15:26:29.936Z,2.75
2019-05-16T15:28:59.155Z,3.85
2019-05-16T15:31:25.874Z,3.53
2019-05-16T15:33:54.455Z,3.80
2019-05-16T15:36:22.647Z,3.33
2019-05-16T15:38:50.842Z,3.60
2019-05-16T15:41:19.029Z,3.80
2019-05-16T15:43:46.954Z,3.60
2019-05-16T15:46:17.096Z,3.87
2019-05-16T15:48:43.205Z,2.80
2019-05-16T15:51:11.901Z,3.83
2019-05-16T15:53:40.855Z,3.33
2019-05-16T15:56:10.488Z,3.20
2019-05-16T15:58:37.496Z,3.58
2019-05-16T16:01:07.064Z,3.37
2019-05-16T16:03:33.581Z,3.53
2019-05-16T16:06:01.641Z,3.42
2019-05-16T16:08:29.416Z,3.20
2019-05-16T16:10:57.579Z,2.72
2019-05-16T16:13:26.833Z,3.35
2019-05-16T16:15:54.673Z,2.47
2019-05-16T16:18:22.087Z,3.20
2019-05-16T16:20:49.676Z,3.37
2019-05-16T16:23:17.900Z,2.50
2019-05-16T16:25:50.238Z,2.08
2019-05-16T16:28:13.367Z,2.45
2019-05-16T16:30:41.415Z,2.83
2019-05-16T16:33:21.806Z,2.67
2019-05-16T16:35:38.224Z,2.33
2019-05-16T16:38:07.060Z,2.42
2019-05-16T16:40:34.354Z,2.87
2019-05-16T16:43:02.426Z,3.17
2019-05-16T16:45:30.971Z,2.95
2019-05-16T16:47:59.897Z,2.78
2019-05-16T16:50:27.944Z,2.83
2019-05-16T16:52:56.782Z,2.47
2019-05-16T16:55:24.608Z,3.30
2019-05-16T16:57:56.017Z,2.90
2019-05-16T17:00:20.864Z,2.85
2019-05-16T17:03:02.122Z,2.92
2019-05-16T17:05:17.566Z,3.00
2019-05-16T17:07:48.533Z,2.65
2019-05-16T17:10:14.399Z,2.30
2019-05-16T17:12:43.237Z,3.25
2019-05-16T17:15:11.375Z,3.03
2019-05-16T17:17:40.880Z,2.40
2019-05-16T17:20:09.230Z,2.50
2019-05-16T17:22:37.906Z,3.08
2019-05-16T17:25:07.195Z,2.87
2019-05-16T17:27:34.351Z,3.03
2019-05-16T17:30:02.540Z,3.30
2019-05-16T17:32:30.610Z,3.03
2019-05-16T17:34:59.199Z,3.58
2019-05-16T17:37:27.366Z,2.72
2019-05-16T17:39:56.959Z,3.50
2019-05-16T17:42:23.287Z,4.25
2019-05-16T17:44:51.338Z,3.37
2019-05-16T17:47:19.463Z,3.62
2019-05-16T17:49:47.519Z,3.80
2019-05-16T17:52:16.529Z,3.97
2019-05-16T17:54:45.210Z,4.72
2019-05-16T17:57:13.270Z,3.35
2019-05-16T17:59:41.752Z,3.45
2019-05-16T18:02:09.865Z,3.10
2019-05-16T18:04:40.983Z,3.53
2019-05-16T18:07:07.332Z,3.42
2019-05-16T18:09:34.169Z,3.20
2019-05-16T18:12:02.329Z,3.37
2019-05-16T18:14:30.590Z,3.45
2019-05-16T18:17:01.916Z,4.40
2019-05-16T18:19:26.539Z,4.03
2019-05-16T18:21:54.283Z,3.83
2019-05-16T18:24:22.426Z,4.20
2019-05-16T18:26:51.025Z,4.45
2019-05-16T18:29:19.120Z,4.53
2019-05-16T18:31:47.322Z,4.28
2019-05-16T18:34:16.854Z,4.00
2019-05-16T18:36:43.441Z,4.12
2019-05-16T18:39:11.615Z,4.20
2019-05-16T18:41:39.900Z,4.35
2019-05-16T18:44:08.162Z,3.90
2019-05-16T18:46:36.477Z,3.40
2019-05-16T18:49:04.482Z,3.42
2019-05-16T18:51:32.566Z,3.30
2019-05-16T18:54:00.707Z,3.60
2019-05-16T18:56:29.443Z,3.03
2019-05-16T18:58:57.500Z,3.92
2019-05-16T19:01:26.903Z,2.35
2019-05-16T19:03:54.552Z,2.83
2019-05-16T19:06:22.642Z,3.20
2019-05-16T19:08:50.940Z,3.70
2019-05-16T19:11:19.004Z,3.42
2019-05-16T19:13:47.450Z,2.67
2019-05-16T19:16:16.851Z,2.92
2019-05-16T19:18:43.114Z,2.55
2019-05-16T19:21:10.879Z,3.03
2019-05-16T19:23:38.838Z,4.22
2019-05-16T19:26:07.306Z,4.00
2019-05-16T19:28:36.773Z,3.60
2019-05-16T19:31:03.166Z,2.83
2019-05-16T19:33:32.251Z,3.72
2019-05-16T19:36:00.304Z,3.30
2019-05-16T19:38:29.324Z,2.95
2019-05-16T19:40:57.552Z,2.70
2019-05-16T19:43:26.500Z,3.95
2019-05-16T19:45:52.916Z,4.12
2019-05-16T19:48:21.083Z,3.47
2019-05-16T19:50:49.142Z,3.17
2019-05-16T19:53:17.346Z,2.58
2019-05-16T19:55:47.014Z,3.72
2019-05-16T19:58:14.104Z,4.12
2019-05-16T20:00:42.045Z,3.53
2019-05-16T20:03:10.117Z,3.17
2019-05-16T20:05:38.290Z,3.72
2019-05-16T20:08:06.802Z,4.07
2019-05-16T20:10:36.417Z,3.58
2019-05-16T20:13:02.320Z,3.67
2019-05-16T20:15:30.393Z,3.05
2019-05-16T20:17:58.828Z,3.75
2019-05-16T20:20:27.542Z,3.67
2019-05-16T20:22:56.669Z,3.20
2019-05-16T20:25:24.024Z,3.15
2019-05-16T20:27:52.099Z,2.92
2019-05-16T20:30:20.335Z,3.40
2019-05-16T20:32:48.437Z,3.12
2019-05-16T20:35:17.447Z,3.08
2019-05-16T20:37:44.768Z,3.50
2019-05-16T20:40:12.858Z,3.87
2019-05-16T20:42:40.693Z,3.22
2019-05-16T20:45:09.173Z,3.15
2019-05-16T20:47:37.258Z,3.70
2019-05-16T20:50:07.727Z,3.47
2019-05-16T20:52:34.027Z,3.22
2019-05-16T20:55:02.751Z,3.55
2019-05-16T20:57:30.852Z,3.58
2019-05-16T21:00:00.123Z,3.15
2019-05-16T21:02:28.249Z,3.12
2019-05-16T21:04:57.065Z,3.80
2019-05-16T21:07:26.459Z,3.08
2019-05-16T21:09:52.944Z,3.85
2019-05-16T21:12:21.668Z,3.85
2019-05-16T21:14:50.049Z,4.05
2019-05-16T21:17:18.309Z,3.90
2019-05-16T21:19:48.315Z,3.55
2019-05-16T21:22:16.288Z,3.75
2019-05-16T21:24:42.540Z,3.85
2019-05-16T21:27:10.690Z,4.12
2019-05-16T21:29:38.817Z,3.50
2019-05-16T21:32:07.401Z,4.00
2019-05-16T21:34:36.569Z,3.78
2019-05-16T21:37:13.813Z,3.80
2019-05-16T21:39:31.459Z,3.92
2019-05-16T21:41:59.556Z,4.57
2019-05-16T21:44:29.033Z,4.07
2019-05-16T21:46:56.417Z,4.15
2019-05-16T21:49:23.755Z,4.05
2019-05-16T21:51:52.207Z,4.18
2019-05-16T21:54:20.291Z,3.90
2019-05-16T21:56:48.486Z,4.55
2019-05-16T21:59:16.534Z,3.95
2019-05-16T22:01:47.271Z,3.90
2019-05-16T22:04:13.814Z,4.35
2019-05-16T22:06:41.674Z,4.28
2019-05-16T22:09:09.450Z,4.20
2019-05-16T22:11:37.502Z,4.32
2019-05-16T22:14:06.481Z,4.37
2019-05-16T22:16:33.789Z,4.50
2019-05-16T22:19:02.021Z,4.55
2019-05-16T22:21:30.125Z,4.15
2019-05-16T22:23:57.985Z,4.30
2019-05-16T22:26:27.082Z,4.93
2019-05-16T22:28:54.269Z,4.90
2019-05-16T22:31:22.393Z,4.30
2019-05-16T22:33:50.482Z,4.57
2019-05-16T22:36:18.789Z,4.20
2019-05-16T22:38:46.940Z,4.70
2019-05-16T22:41:17.077Z,4.93
2019-05-16T22:43:43.349Z,4.87
2019-05-16T22:46:11.154Z,4.50
2019-05-16T22:48:40.179Z,4.95
2019-05-16T22:51:08.376Z,4.85
2019-05-16T22:53:36.948Z,4.80
2019-05-16T22:56:07.242Z,5.07
2019-05-16T22:58:33.422Z,5.93
2019-05-16T23:01:01.503Z,5.12
2019-05-16T23:03:30.103Z,5.00
2019-05-16T23:06:13.102Z,6.35
2019-05-16T23:08:41.176Z,5.35
2019-05-16T23:11:09.282Z,6.00
2019-05-16T23:13:36.743Z,5.35
2019-05-16T23:16:06.782Z,6.00
2019-05-16T23:18:32.989Z,6.32
2019-05-16T23:21:01.149Z,6.07
2019-05-16T23:23:29.360Z,6.30
2019-05-16T23:25:58.096Z,6.18
2019-05-16T23:28:27.215Z,5.22
2019-05-16T23:30:54.026Z,5.55
2019-05-16T23:33:22.156Z,6.32
2019-05-16T23:35:50.287Z,6.57
2019-05-16T23:38:20.061Z,7.25
2019-05-16T23:40:46.935Z,8.05
2019-05-16T23:43:14.616Z,6.45
2019-05-16T23:45:42.756Z,6.62
2019-05-16T23:48:11.494Z,6.85
2019-05-16T23:50:39.225Z,6.70
2019-05-16T23:53:07.648Z,6.97
2019-05-16T23:55:37.231Z,7.87
2019-05-16T23:58:03.274Z,6.82
